Time;durP1;ratioP1;P1;durP2;ratioP2;P2;SDS_P1;SDS_P2;PMS_P1;PMS_P2;Temp;Humidity;BMP_temperature;BMP_pressure;BME280_temperature;BME280_humidity;BME280_pressure;Samples;Min_cycle;Max_cycle;Signal;HPM_P1;HPM_P2
2023/12/22 00:02:25;;;;;;;91.63;60.53;;;;;;;;;;5097552;27;20048;-68
2023/12/22 00:05:30;;;;;;;85.60;59.22;;;;;;;;;;5049768;28;20044;-68
2023/12/22 00:08:34;;;;;;;89.65;61.33;;;;;;;;;;5049749;28;20052;-68
2023/12/22 00:11:38;;;;;;;102.70;67.22;;;;;;;;;;5049898;28;20048;-69
2023/12/22 00:14:43;;;;;;;95.90;63.22;;;;;;;;;;5049666;28;20040;-68
2023/12/22 00:17:47;;;;;;;99.03;66.00;;;;;;;;;;5049460;28;20131;-69
2023/12/22 00:20:51;;;;;;;102.40;66.28;;;;;;;;;;5049815;28;20072;-68
2023/12/22 00:23:56;;;;;;;102.10;65.63;;;;;;;;;;5049555;28;20047;-68
2023/12/22 00:27:01;;;;;;;96.45;66.03;;;;;;;;;;5049667;28;20044;-69
2023/12/22 00:30:05;;;;;;;95.28;65.68;;;;;;;;;;5049659;28;20543;-69
2023/12/22 00:33:10;;;;;;;98.40;65.40;;;;;;;;;;5049519;28;20044;-68
2023/12/22 00:36:14;;;;;;;103.32;69.80;;;;;;;;;;5049314;28;20052;-68
2023/12/22 00:39:22;;;;;;;103.90;67.53;;;11.60;99.90;;;;;;5049540;28;20040;-68
2023/12/22 00:42:26;;;;;;;102.72;68.00;;;;;;;;;;5049082;28;20055;-69
2023/12/22 00:45:31;;;;;;;100.53;64.40;;;;;;;;;;5049230;28;20503;-69
2023/12/22 00:48:35;;;;;;;96.43;65.60;;;;;;;;;;5049043;28;20052;-69
2023/12/22 00:51:39;;;;;;;95.47;60.67;;;;;;;;;;5049043;28;20040;-68
2023/12/22 00:54:43;;;;;;;99.78;61.60;;;;;;;;;;5049057;28;20048;-69
2023/12/22 00:57:48;;;;;;;86.05;59.72;;;;;;;;;;5049291;28;20036;-68
2023/12/22 01:00:52;;;;;;;90.72;61.75;;;;;;;;;;5049718;28;20515;-68
2023/12/22 01:03:59;;;;;;;94.10;64.22;;;;;;;;;;5049095;28;20526;-68
2023/12/22 01:07:03;;;;;;;100.25;66.15;;;;;;;;;;5049135;28;20427;-69
2023/12/22 01:10:09;;;;;;;102.32;68.63;;;;;;;;;;5048793;28;20525;-68
2023/12/22 01:13:13;;;;;;;107.22;66.70;;;;;;;;;;5048998;28;20032;-68
2023/12/22 01:16:19;;;;;;;101.65;69.40;;;;;;;;;;5048749;28;20110;-68
2023/12/22 01:19:23;;;;;;;97.07;66.38;;;;;;;;;;5048765;28;20419;-69
2023/12/22 01:22:28;;;;;;;108.65;70.93;;;;;;;;;;5048977;28;20047;-68
2023/12/22 01:25:32;;;;;;;102.07;66.63;;;;;;;;;;5048761;28;20040;-68
2023/12/22 01:28:36;;;;;;;93.20;65.43;;;;;;;;;;5048395;28;20044;-69
2023/12/22 01:31:41;;;;;;;96.00;65.28;;;;;;;;;;5048673;28;20048;-69
2023/12/22 01:34:48;;;;;;;93.47;64.90;;;;;;;;;;5048780;28;20044;-69
2023/12/22 01:37:52;;;;;;;92.75;62.67;;;;;;;;;;5048075;28;20503;-69
2023/12/22 01:41:00;;;;;;;97.03;64.93;;;;;;;;;;5048426;28;20036;-69
2023/12/22 01:44:04;;;;;;;95.32;63.35;;;;;;;;;;5048286;28;20055;-69
2023/12/22 01:47:09;;;;;;;91.72;62.00;;;;;;;;;;5048135;28;20032;-69
2023/12/22 01:50:14;;;;;;;92.68;60.63;;;11.80;99.90;;;;;;5048113;28;20071;-69
2023/12/22 01:53:23;;;;;;;95.15;62.13;;;11.60;99.90;;;;;;5048231;28;20044;-69
2023/12/22 01:56:27;;;;;;;86.53;59.15;;;;;;;;;;5048231;28;20063;-69
2023/12/22 01:59:34;;;;;;;91.97;61.63;;;11.70;99.90;;;;;;5048198;28;20044;-69
2023/12/22 02:02:40;;;;;;;93.50;61.30;;;11.70;99.90;;;;;;5048012;28;20048;-69
2023/12/22 02:05:47;;;;;;;90.47;60.65;;;;;;;;;;5048088;28;20499;-69
2023/12/22 02:08:52;;;;;;;83.43;60.03;;;;;;;;;;5048530;28;20055;-69
2023/12/22 02:11:56;;;;;;;87.30;60.58;;;;;;;;;;5095538;28;20048;-68
2023/12/22 02:15:01;;;;;;;87.55;61.47;;;;;;;;;;5047753;28;20048;-69
2023/12/22 02:18:04;;;;;;;91.45;62.63;;;;;;;;;;5047608;28;20048;-69
2023/12/22 02:21:09;;;;;;;93.30;64.82;;;;;;;;;;5048012;28;20044;-68
2023/12/22 02:24:13;;;;;;;94.80;62.33;;;;;;;;;;5047992;28;20048;-68
2023/12/22 02:27:23;;;;;;;85.03;60.47;;;11.40;99.90;;;;;;5047683;28;20044;-68
2023/12/22 02:30:42;;;;;;;84.07;58.95;;;11.50;99.90;;;;;;5047767;28;20107;-68
2023/12/22 02:33:48;;;;;;;79.13;56.70;;;11.30;99.90;;;;;;5094600;28;20495;-68
2023/12/22 02:36:54;;;;;;;79.55;54.33;;;11.50;99.90;;;;;;5095503;28;20060;-68
2023/12/22 02:39:59;;;;;;;75.90;53.97;;;11.10;99.90;;;;;;5047473;28;20396;-68
2023/12/22 02:43:06;;;;;;;72.95;50.58;;;11.50;99.90;;;;;;5047922;28;20059;-68
2023/12/22 02:46:14;;;;;;;73.40;52.58;;;11.40;99.90;;;;;;5047514;28;20066;-68
2023/12/22 02:49:19;;;;;;;74.85;50.65;;;;;;;;;;5048492;28;20166;-68
2023/12/22 02:52:23;;;;;;;79.05;53.08;;;;;;;;;;5051295;28;20499;-68
2023/12/22 02:55:28;;;;;;;69.75;50.10;;;;;;;;;;5050750;28;20044;-68
2023/12/22 02:58:32;;;;;;;73.45;51.67;;;;;;;;;;5051032;28;20044;-68
2023/12/22 03:01:37;;;;;;;73.97;46.92;;;;;;;;;;5051073;28;20047;-68
2023/12/22 03:04:41;;;;;;;62.70;44.63;;;;;;;;;;5050951;28;20044;-68
2023/12/22 03:07:45;;;;;;;71.30;44.53;;;;;;;;;;5050722;28;20048;-68
2023/12/22 03:10:49;;;;;;;62.20;45.88;;;;;;;;;;5051009;28;20048;-68
2023/12/22 03:13:54;;;;;;;66.75;46.50;;;;;;;;;;5051071;28;20044;-68
2023/12/22 03:16:58;;;;;;;66.90;44.80;;;;;;;;;;5050568;28;20048;-68
2023/12/22 03:20:03;;;;;;;59.10;41.58;;;;;;;;;;5050639;28;20040;-68
2023/12/22 03:23:08;;;;;;;61.60;42.13;;;;;;;;;;5050623;28;20048;-68
2023/12/22 03:26:12;;;;;;;60.58;43.10;;;;;;;;;;5050667;28;20048;-68
2023/12/22 03:29:19;;;;;;;60.70;42.33;;;11.60;99.90;;;;;;5050401;28;20052;-68
2023/12/22 03:32:23;;;;;;;58.17;40.10;;;;;;;;;;5097742;27;20040;-68
2023/12/22 03:35:31;;;;;;;58.42;40.70;;;;;;;;;;5050555;28;20044;-68
2023/12/22 03:38:35;;;;;;;58.35;39.70;;;;;;;;;;5050064;28;20052;-68
2023/12/22 03:41:39;;;;;;;58.53;39.90;;;;;;;;;;5050220;28;20042;-68
2023/12/22 03:44:43;;;;;;;61.08;38.97;;;;;;;;;;5049922;28;20110;-68
2023/12/22 03:47:47;;;;;;;54.97;36.38;;;;;;;;;;5049959;28;20044;-68
2023/12/22 03:50:52;;;;;;;59.03;35.13;;;;;;;;;;5050138;28;20068;-68
2023/12/22 03:54:00;;;;;;;52.47;36.03;;;;;;;;;;5050215;28;20036;-68
2023/12/22 03:57:04;;;;;;;49.08;33.20;;;;;;;;;;5050068;28;20052;-68
2023/12/22 04:00:08;;;;;;;50.35;32.53;;;;;;;;;;5049768;28;20044;-68
2023/12/22 04:03:12;;;;;;;43.88;29.55;;;;;;;;;;5049774;28;20564;-68
2023/12/22 04:06:17;;;;;;;46.60;29.42;;;;;;;;;;5049677;28;20056;-68
2023/12/22 04:09:21;;;;;;;45.22;29.92;;;;;;;;;;5049756;28;20503;-68
2023/12/22 04:12:26;;;;;;;45.58;29.27;;;;;;;;;;5049838;28;20044;-68
2023/12/22 04:15:30;;;;;;;51.47;27.75;;;;;;;;;;5049535;28;20044;-68
2023/12/22 04:18:34;;;;;;;45.45;26.85;;;;;;;;;;5049800;28;20056;-68
2023/12/22 04:21:39;;;;;;;42.08;26.33;;;;;;;;;;5049697;28;20040;-68
2023/12/22 04:24:43;;;;;;;41.72;27.75;;;;;;;;;;5049592;28;20486;-68
2023/12/22 04:27:47;;;;;;;40.35;27.85;;;;;;;;;;5049699;28;20387;-68
2023/12/22 04:30:51;;;;;;;50.92;29.15;;;;;;;;;;5049272;28;20056;-68
2023/12/22 04:33:56;;;;;;;47.78;31.02;;;;;;;;;;5049770;28;20036;-68
2023/12/22 04:37:00;;;;;;;44.10;26.77;;;;;;;;;;5049472;28;20048;-67
2023/12/22 04:40:05;;;;;;;43.28;24.98;;;;;;;;;;5049485;28;20048;-67
2023/12/22 04:43:10;;;;;;;38.85;26.77;;;;;;;;;;5049471;28;20519;-68
2023/12/22 04:46:14;;;;;;;39.60;27.45;;;;;;;;;;5049104;28;20036;-68
2023/12/22 04:49:21;;;;;;;39.75;25.25;;;;;;;;;;5049173;28;20053;-68
2023/12/22 04:52:25;;;;;;;32.45;23.88;;;;;;;;;;5049371;28;20059;-69
2023/12/22 04:55:30;;;;;;;38.05;23.20;;;;;;;;;;5048990;28;20523;-69
2023/12/22 04:58:34;;;;;;;41.65;25.75;;;;;;;;;;5049201;28;20044;-69
2023/12/22 05:01:39;;;;;;;40.38;25.55;;;;;;;;;;5048958;28;20040;-68
2023/12/22 05:04:43;;;;;;;41.63;25.10;;;;;;;;;;5049066;28;20514;-68
2023/12/22 05:07:47;;;;;;;34.35;22.15;;;;;;;;;;5049131;28;20052;-69
2023/12/22 05:10:51;;;;;;;33.35;21.15;;;;;;;;;;5048751;28;20060;-69
2023/12/22 05:13:56;;;;;;;36.20;18.70;;;;;;;;;;5049389;28;20412;-68
2023/12/22 05:17:01;;;;;;;29.88;18.95;;;;;;;;;;5048613;28;20052;-68
2023/12/22 05:20:05;;;;;;;35.40;20.38;;;;;;;;;;5048653;28;20052;-67
2023/12/22 05:23:10;;;;;;;35.17;19.70;;;;;;;;;;5048798;28;20044;-68
2023/12/22 05:26:18;;;;;;;32.60;21.05;;;11.40;99.90;;;;;;5048920;28;20063;-67
2023/12/22 05:29:22;;;;;;;39.50;17.42;;;;;;;;;;5048547;28;20498;-67
2023/12/22 05:32:27;;;;;;;29.80;17.63;;;;;;;;;;5048482;28;20040;-68
2023/12/22 05:35:31;;;;;;;36.05;19.05;;;;;;;;;;5048621;28;20051;-68
2023/12/22 05:38:39;;;;;;;29.77;18.75;;;11.70;99.90;;;;;;5048441;28;20507;-68
2023/12/22 05:41:43;;;;;;;41.47;19.65;;;;;;;;;;5048308;28;20048;-68
2023/12/22 05:44:49;;;;;;;40.78;18.58;;;;;;;;;;5048458;28;20040;-68
2023/12/22 05:47:53;;;;;;;34.25;18.52;;;;;;;;;;5048337;28;20044;-68
2023/12/22 05:50:58;;;;;;;29.55;18.05;;;;;;;;;;5048315;28;20051;-68
2023/12/22 05:54:02;;;;;;;37.85;20.98;;;;;;;;;;5048538;28;20416;-68
2023/12/22 05:57:07;;;;;;;45.17;23.13;;;;;;;;;;5048453;28;20048;-68
2023/12/22 06:00:12;;;;;;;43.90;22.25;;;;;;;;;;5094566;27;20061;-68
2023/12/22 06:03:16;;;;;;;39.03;20.95;;;;;;;;;;5048533;28;20047;-68
2023/12/22 06:06:21;;;;;;;35.30;20.67;;;;;;;;;;5048068;28;20044;-68
2023/12/22 06:09:25;;;;;;;39.72;22.65;;;;;;;;;;5048208;28;20056;-68
2023/12/22 06:12:30;;;;;;;32.42;18.80;;;;;;;;;;5048320;28;20040;-68
2023/12/22 06:15:34;;;;;;;31.67;18.10;;;;;;;;;;5047997;28;20056;-68
2023/12/22 06:18:39;;;;;;;30.05;17.75;;;;;;;;;;5047940;28;20044;-68
2023/12/22 06:21:43;;;;;;;41.05;18.15;;;;;;;;;;5047730;28;20507;-68
2023/12/22 06:24:47;;;;;;;27.10;15.90;;;;;;;;;;5051395;28;20048;-68
2023/12/22 06:27:51;;;;;;;27.13;14.52;;;;;;;;;;5099801;27;20043;-69
2023/12/22 06:30:56;;;;;;;25.20;15.63;;;;;;;;;;5051198;28;20060;-69
2023/12/22 06:34:01;;;;;;;30.23;15.88;;;;;;;;;;5051237;28;20044;-68
2023/12/22 06:37:07;;;;;;;26.88;13.65;;;;;;;;;;5051161;28;20052;-68
2023/12/22 06:40:12;;;;;;;30.30;15.13;;;;;;;;;;5051020;28;20040;-68
2023/12/22 06:43:16;;;;;;;28.70;12.32;;;;;;;;;;5051258;28;20048;-68
2023/12/22 06:46:22;;;;;;;26.65;11.93;;;12.20;99.90;;;;;;5051006;28;20035;-68
2023/12/22 06:49:26;;;;;;;27.48;11.57;;;;;;;;;;5051324;28;20080;-68
2023/12/22 06:52:30;;;;;;;58.30;24.85;;;;;;;;;;5051215;28;20048;-68
2023/12/22 06:55:35;;;;;;;32.80;11.55;;;;;;;;;;5051020;28;20060;-59
2023/12/22 06:58:39;;;;;;;32.30;11.80;;;;;;;;;;5098864;27;20040;-59
2023/12/22 07:01:44;;;;;;;26.48;10.60;;;;;;;;;;5050825;28;20043;-59
2023/12/22 07:05:22;;;;;;;26.65;11.50;;;11.90;99.90;;;;;;5050720;28;20503;-59
2023/12/22 07:08:27;;;;;;;23.38;11.65;;;;;;;;;;5050825;28;20510;-59
2023/12/22 07:11:31;;;;;;;28.77;14.18;;;;;;;;;;5050553;28;20056;-59
2023/12/22 07:14:35;;;;;;;24.88;11.85;;;;;;;;;;5097627;27;20529;-59
2023/12/22 07:17:39;;;;;;;23.88;10.18;;;;;;;;;;5049894;28;20408;-59
2023/12/22 07:20:44;;;;;;;22.75;10.27;;;;;;;;;;5050457;28;20076;-59
2023/12/22 07:23:48;;;;;;;20.80;8.85;;;;;;;;;;5050570;28;20044;-59
2023/12/22 07:26:52;;;;;;;23.45;9.63;;;;;;;;;;5050417;28;20037;-61
2023/12/22 07:29:57;;;;;;;25.52;8.35;;;;;;;;;;5049892;28;20049;-60
2023/12/22 07:33:01;;;;;;;27.10;8.10;;;;;;;;;;5050486;28;20029;-60
2023/12/22 07:36:06;;;;;;;26.55;9.65;;;;;;;;;;5049318;28;20036;-61
2023/12/22 07:39:11;;;;;;;21.42;8.68;;;;;;;;;;5050297;28;20029;-59
2023/12/22 07:42:15;;;;;;;26.55;9.32;;;;;;;;;;5050163;28;20045;-60
2023/12/22 07:45:19;;;;;;;24.17;8.80;;;;;;;;;;5050252;28;20033;-60
2023/12/22 07:48:24;;;;;;;20.60;8.73;;;;;;;;;;5049730;28;20033;-59
2023/12/22 07:51:28;;;;;;;14.60;8.13;;;;;;;;;;5049808;28;20036;-59
2023/12/22 07:54:32;;;;;;;20.13;7.28;;;;;;;;;;5097477;27;20334;-59
2023/12/22 07:57:37;;;;;;;20.50;7.80;;;;;;;;;;5049585;28;20499;-60
2023/12/22 08:00:41;;;;;;;26.67;7.82;;;;;;;;;;5049888;28;20037;-59
2023/12/22 08:03:45;;;;;;;20.23;8.32;;;;;;;;;;5049919;28;20048;-59
2023/12/22 08:06:49;;;;;;;27.95;10.95;;;;;;;;;;5049947;28;20041;-60
2023/12/22 08:09:53;;;;;;;21.60;9.02;;;;;;;;;;5049794;28;20060;-59
2023/12/22 08:12:58;;;;;;;28.42;9.77;;;;;;;;;;5049306;28;20036;-59
2023/12/22 08:16:02;;;;;;;23.98;9.10;;;;;;;;;;5049382;28;20041;-59
2023/12/22 08:19:07;;;;;;;21.30;8.77;;;;;;;;;;5009925;28;20058;-59
2023/12/22 08:22:15;;;;;;;22.35;9.57;;;;;;;;;;5009928;28;20061;-59
2023/12/22 08:25:20;;;;;;;17.83;9.10;;;;;;;;;;5009619;28;20378;-59
2023/12/22 08:28:24;;;;;;;22.55;9.45;;;;;;;;;;5010120;28;20520;-60
2023/12/22 08:31:28;;;;;;;18.52;7.45;;;;;;;;;;5009769;28;20050;-60
2023/12/22 08:34:32;;;;;;;22.60;7.82;;;;;;;;;;5009625;28;20469;-60
2023/12/22 08:37:37;;;;;;;26.55;8.48;;;;;;;;;;5009822;28;20034;-64
2023/12/22 08:40:41;;;;;;;21.25;7.85;;;;;;;;;;5009944;28;20042;-61
2023/12/22 08:43:46;;;;;;;15.70;7.35;;;;;;;;;;5009512;28;20045;-61
2023/12/22 08:46:50;;;;;;;20.83;8.52;;;;;;;;;;5008275;28;20037;-60
2023/12/22 08:49:54;;;;;;;20.98;7.55;;;;;;;;;;5009505;28;20500;-61
2023/12/22 08:52:59;;;;;;;22.23;8.35;;;;;;;;;;5009318;28;20462;-62
2023/12/22 08:56:03;;;;;;;24.92;9.05;;;;;;;;;;5009057;28;20029;-61
2023/12/22 08:59:08;;;;;;;37.10;14.10;;;;;;;;;;5009344;28;20037;-61
2023/12/22 09:02:12;;;;;;;34.67;9.88;;;;;;;;;;5009379;28;20670;-61
2023/12/22 09:05:18;;;;;;;31.55;10.57;;;;;;;;;;5009135;28;20037;-61
2023/12/22 09:08:22;;;;;;;25.38;10.15;;;;;;;;;;5008967;28;20044;-61
2023/12/22 09:11:26;;;;;;;40.90;11.85;;;;;;;;;;5009356;28;20053;-61
2023/12/22 09:14:31;;;;;;;31.50;11.73;;;;;;;;;;5009409;28;20049;-61
2023/12/22 09:17:36;;;;;;;37.67;13.00;;;;;;;;;;5033929;28;20060;-61
2023/12/22 09:20:40;;;;;;;31.35;11.23;;;;;;;;;;5048798;28;20040;-61
2023/12/22 09:23:46;;;;;;;32.30;12.65;;;14.90;99.90;;;;;;5048643;28;20503;-61
2023/12/22 09:26:51;;;;;;;29.48;12.25;;;;;;;;;;5048601;28;20052;-61
2023/12/22 09:29:55;;;;;;;38.15;12.15;;;;;;;;;;5048526;28;20056;-61
2023/12/22 09:32:59;;;;;;;31.65;11.50;;;;;;;;;;5095767;27;20044;-61
2023/12/22 09:36:04;;;;;;;35.15;7.45;;;;;;;;;;5048541;28;20071;-61
2023/12/22 09:39:08;;;;;;;29.20;6.30;;;;;;;;;;5048458;28;20041;-62
2023/12/22 09:42:13;;;;;;;35.80;6.30;;;;;;;;;;5096040;27;20045;-62
2023/12/22 09:45:20;;;;;;;28.63;5.75;;;;;;;;;;5048403;28;20033;-61
2023/12/22 09:48:29;;;;;;;23.42;5.30;;;;;;;;;;5048744;28;20488;-61
2023/12/22 09:51:33;;;;;;;28.52;5.88;;;;;;;;;;5048400;28;20045;-61
2023/12/22 09:54:38;;;;;;;28.00;6.25;;;;;;;;;;5048462;28;20029;-61
2023/12/22 09:57:43;;;;;;;31.75;5.10;;;;;;;;;;5047777;28;20037;-61
2023/12/22 10:00:47;;;;;;;22.38;4.50;;;;;;;;;;5048367;28;20029;-61
2023/12/22 10:03:51;;;;;;;28.67;6.57;;;;;;;;;;5047997;28;20029;-61
2023/12/22 10:07:00;;;;;;;22.40;4.72;;;;;;;;;;5048059;28;20140;-61
2023/12/22 10:10:05;;;;;;;28.60;5.90;;;;;;;;;;5048128;28;20373;-61
2023/12/22 10:13:10;;;;;;;24.98;5.78;;;;;;;;;;5048034;28;20362;-61
2023/12/22 10:16:15;;;;;;;31.45;5.97;;;;;;;;;;5047619;28;20488;-61
2023/12/22 10:19:20;;;;;;;18.52;4.72;;;;;;;;;;5047643;28;20049;-61
2023/12/22 10:22:25;;;;;;;19.88;5.07;;;;;;;;;;5047667;28;20045;-61
2023/12/22 10:25:29;;;;;;;27.05;5.93;;;;;;;;;;5047065;28;20033;-62
2023/12/22 10:28:33;;;;;;;27.88;5.60;;;;;;;;;;5047923;28;20045;-61
2023/12/22 10:31:40;;;;;;;25.70;5.53;;;17.30;99.90;;;;;;5047844;28;20041;-61
2023/12/22 10:34:45;;;;;;;20.67;4.80;;;;;;;;;;5047644;28;20043;-59
2023/12/22 10:37:53;;;;;;;23.70;5.45;;;;;;;;;;5047600;28;20038;-59
2023/12/22 10:40:58;;;;;;;20.08;4.75;;;;;;;;;;5047501;28;20385;-59
2023/12/22 10:44:02;;;;;;;24.88;4.35;;;;;;;;;;5047452;28;20041;-60
2023/12/22 10:47:06;;;;;;;19.95;4.93;;;;;;;;;;5047255;28;20037;-62
2023/12/22 10:50:14;;;;;;;20.10;4.65;;;;;;;;;;5095253;28;20496;-60
2023/12/22 10:53:20;;;;;;;24.73;4.68;;;;;;;;;;5047554;28;20037;-61
2023/12/22 10:56:25;;;;;;;26.00;5.47;;;;;;;;;;5047437;28;20049;-60
2023/12/22 10:59:33;;;;;;;26.05;6.50;;;;;;;;;;5047156;28;20041;-61
2023/12/22 11:02:41;;;;;;;22.00;4.35;;;;;;;;;;5047040;28;20037;-60
2023/12/22 11:05:47;;;;;;;19.95;4.00;;;;;;;;;;5047182;28;20053;-60
2023/12/22 11:08:53;;;;;;;15.25;4.25;;;16.80;99.90;;;;;;5047187;28;20033;-60
2023/12/22 11:11:58;;;;;;;24.27;4.47;;;;;;;;;;5050303;28;20055;-60
2023/12/22 11:15:03;;;;;;;74.00;8.48;;;;;;;;;;5050360;28;20369;-59
2023/12/22 11:18:09;;;;;;;19.15;3.83;;;18.80;99.90;;;;;;5049876;28;20049;-60
2023/12/22 11:21:14;;;;;;;18.02;5.35;;;;;;;;;;5049811;28;20056;-61
2023/12/22 11:24:18;;;;;;;66.20;12.25;;;;;;;;;;5050369;28;20041;-64
2023/12/22 11:27:23;;;;;;;40.25;6.18;;;;;;;;;;5050624;28;20388;-63
2023/12/22 11:30:29;;;;;;;47.03;6.63;;;;;;;;;;5050107;28;20049;-67
2023/12/22 11:33:36;;;;;;;25.02;6.68;;;18.10;99.90;;;;;;5050134;28;20377;-63
2023/12/22 11:36:41;;;;;;;19.60;5.00;;;;;;;;;;5050470;28;20385;-69
2023/12/22 11:39:47;;;;;;;31.83;6.07;;;;;;;;;;5050491;28;20037;-68
2023/12/22 11:42:51;;;;;;;19.60;4.38;;;;;;;;;;5050237;28;20041;-67
2023/12/22 11:45:56;;;;;;;17.45;3.92;;;;;;;;;;5049905;28;20045;-66
2023/12/22 11:49:00;;;;;;;25.58;4.55;;;;;;;;;;5050290;28;20045;-66
2023/12/22 11:52:12;;;;;;;18.77;4.15;;;17.70;99.50;;;;;;5049475;28;20049;-68
2023/12/22 11:55:16;;;;;;;22.02;4.40;;;;;;;;;;5049699;28;20052;-66
2023/12/22 11:58:40;;;;;;;17.42;4.05;;;17.60;99.50;;;;;;5049966;28;20485;-66
2023/12/22 12:01:54;;;;;;;12.43;3.50;;;17.60;99.30;;;;;;5054730;28;20040;-60
2023/12/22 12:04:59;;;;;;;23.95;5.10;;;;;;;;;;5049425;28;20071;-60
2023/12/22 12:08:07;;;;;;;17.75;4.00;;;;;;;;;;5049619;28;20037;-60
2023/12/22 12:11:12;;;;;;;21.45;3.92;;;;;;;;;;5049438;28;20373;-60
2023/12/22 12:14:18;;;;;;;21.35;4.25;;;;;;;;;;5049677;28;20456;-60
2023/12/22 12:17:23;;;;;;;15.07;4.65;;;;;;;;;;5049419;28;20057;-60
2023/12/22 12:20:27;;;;;;;33.05;4.85;;;;;;;;;;5097091;27;20041;-60
2023/12/22 12:23:32;;;;;;;18.58;4.20;;;;;;;;;;5049519;28;20476;-60
2023/12/22 12:26:36;;;;;;;16.00;3.97;;;;;;;;;;5049616;28;20045;-60
2023/12/22 12:29:40;;;;;;;21.48;3.70;;;;;;;;;;5049155;28;20040;-60
2023/12/22 12:32:45;;;;;;;18.42;3.78;;;;;;;;;;5049544;28;20049;-60
2023/12/22 12:35:53;;;;;;;18.83;4.35;;;;;;;;;;5049272;28;20041;-60
2023/12/22 12:39:14;;;;;;;14.15;4.10;;;16.60;98.50;;;;;;5049095;28;20037;-60
2023/12/22 12:42:20;;;;;;;14.07;4.43;;;;;;;;;;5049351;28;20044;-60
2023/12/22 12:45:25;;;;;;;14.27;3.58;;;;;;;;;;5049406;28;20033;-60
2023/12/22 12:48:29;;;;;;;16.42;4.38;;;;;;;;;;5049383;28;20488;-60
2023/12/22 12:51:41;;;;;;;23.23;5.15;;;17.90;99.70;;;;;;5048879;28;20049;-60
2023/12/22 12:54:45;;;;;;;26.02;6.40;;;;;;;;;;5048989;28;20040;-61
2023/12/22 12:57:50;;;;;;;25.75;7.10;;;;;;;;;;5048830;28;20049;-61
2023/12/22 13:01:03;;;;;;;21.70;5.20;;;;;;;;;;5096685;27;20041;-60
2023/12/22 13:04:07;;;;;;;26.05;5.40;;;;;;;;;;5049016;28;20040;-60
2023/12/22 13:07:14;;;;;;;17.95;4.45;;;;;;;;;;5048876;28;20033;-60
2023/12/22 13:10:25;;;;;;;14.70;3.95;;;;;;;;;;5048662;28;20041;-59
2023/12/22 13:13:30;;;;;;;22.52;5.28;;;;;;;;;;5049133;28;20049;-61
2023/12/22 13:16:35;;;;;;;24.67;6.20;;;;;;;;;;5048468;28;20037;-61
2023/12/22 13:19:39;;;;;;;22.95;5.40;;;;;;;;;;5048848;28;20037;-61
2023/12/22 13:22:44;;;;;;;26.05;6.45;;;;;;;;;;5048944;28;20536;-61
2023/12/22 13:25:48;;;;;;;21.00;5.40;;;;;;;;;;5096175;27;20045;-60
2023/12/22 13:28:59;;;;;;;25.50;5.88;;;;;;;;;;5048495;28;20037;-61
2023/12/22 13:32:06;;;;;;;23.92;5.63;;;;;;;;;;5048534;28;20488;-60
2023/12/22 13:35:11;;;;;;;30.40;6.07;;;;;;;;;;5048459;28;20045;-60
2023/12/22 13:38:15;;;;;;;24.40;6.05;;;;;;;;;;5048407;28;20037;-60
2023/12/22 13:41:20;;;;;;;23.73;5.93;;;;;;;;;;5048423;28;20036;-61
2023/12/22 13:44:30;;;;;;;34.40;8.35;;;;;;;;;;5048488;28;20472;-61
2023/12/22 13:47:34;;;;;;;21.75;5.43;;;;;;;;;;5048244;28;20045;-60
2023/12/22 13:50:40;;;;;;;30.02;5.78;;;;;;;;;;5048350;28;20053;-60
2023/12/22 13:53:48;;;;;;;40.47;7.60;;;18.30;99.90;;;;;;5048100;28;20033;-61
2023/12/22 13:56:53;;;;;;;36.95;6.57;;;;;;;;;;5048111;28;20072;-61
2023/12/22 13:59:57;;;;;;;27.52;8.07;;;;;;;;;;5048073;28;20045;-60
2023/12/22 14:03:02;;;;;;;40.40;8.32;;;;;;;;;;5048184;28;20041;-60
2023/12/22 14:06:08;;;;;;;34.78;7.50;;;;;;;;;;5048153;28;20048;-60
2023/12/22 14:09:13;;;;;;;19.75;5.45;;;;;;;;;;5047774;28;20053;-61
2023/12/22 14:12:17;;;;;;;24.90;5.80;;;;;;;;;;5047439;28;20395;-61
2023/12/22 14:15:23;;;;;;;27.90;5.78;;;;;;;;;;5048087;28;20037;-60
2023/12/22 14:18:27;;;;;;;25.67;5.28;;;;;;;;;;5047726;28;20049;-60
2023/12/22 14:21:32;;;;;;;29.35;6.53;;;;;;;;;;5047940;28;20032;-62
2023/12/22 14:24:36;;;;;;;31.67;6.18;;;;;;;;;;5047810;28;20043;-62
2023/12/22 14:27:41;;;;;;;31.63;6.13;;;;;;;;;;5047856;28;20046;-61
2023/12/22 14:30:45;;;;;;;28.00;6.25;;;;;;;;;;5047579;28;20037;-61
2023/12/22 14:33:49;;;;;;;29.67;8.50;;;;;;;;;;5047940;28;20041;-60
2023/12/22 14:36:54;;;;;;;37.92;8.73;;;;;;;;;;5094787;28;20037;-62
2023/12/22 14:39:58;;;;;;;46.65;9.75;;;;;;;;;;5047911;28;20025;-64
2023/12/22 14:43:02;;;;;;;32.70;10.05;;;;;;;;;;5047882;28;20044;-61
2023/12/22 14:46:07;;;;;;;44.05;10.80;;;;;;;;;;5051039;28;20040;-62
2023/12/22 14:49:11;;;;;;;35.75;10.43;;;;;;;;;;5051311;28;20048;-62
2023/12/22 14:52:16;;;;;;;39.20;11.38;;;;;;;;;;5050925;28;20384;-64
2023/12/22 14:55:20;;;;;;;39.08;11.60;;;;;;;;;;5050948;28;20068;-63
2023/12/22 14:58:25;;;;;;;39.35;9.95;;;;;;;;;;5051112;28;20490;-61
2023/12/22 15:01:33;;;;;;;37.55;7.43;;;;;;;;;;5051158;28;20045;-64
2023/12/22 15:04:37;;;;;;;25.65;5.93;;;;;;;;;;5049518;28;20041;-61
2023/12/22 15:07:41;;;;;;;33.80;7.40;;;;;;;;;;5049919;28;20037;-61
2023/12/22 15:10:46;;;;;;;25.48;8.73;;;;;;;;;;5098153;27;20507;-65
2023/12/22 15:13:50;;;;;;;31.50;8.63;;;;;;;;;;5050342;28;20614;-64
2023/12/22 15:16:55;;;;;;;30.65;7.28;;;15.60;99.90;;;;;;5050452;28;20065;-65
2023/12/22 15:20:03;;;;;;;22.92;6.65;;;;;;;;;;5050401;28;20052;-64
2023/12/22 15:23:07;;;;;;;32.22;7.50;;;;;;;;;;5050195;28;20049;-64
2023/12/22 15:26:20;;;;;;;32.17;9.70;;;;;;;;;;5050084;28;20033;-64
2023/12/22 15:29:24;;;;;;;35.05;11.30;;;;;;;;;;5050122;28;20420;-64
2023/12/22 15:32:29;;;;;;;42.65;9.73;;;;;;;;;;5049958;28;20063;-63
2023/12/22 15:35:33;;;;;;;38.20;9.23;;;;;;;;;;5050073;28;20392;-63
2023/12/22 15:38:37;;;;;;;36.30;11.55;;;;;;;;;;5050521;28;20036;-64
2023/12/22 15:41:42;;;;;;;40.28;9.63;;;;;;;;;;5050358;28;20040;-66
2023/12/22 15:44:46;;;;;;;53.00;11.45;;;;;;;;;;5050175;28;20045;-64
2023/12/22 15:47:50;;;;;;;51.38;13.52;;;;;;;;;;5050091;28;20040;-64
2023/12/22 15:50:55;;;;;;;55.25;12.40;;;;;;;;;;5050015;28;20056;-64
2023/12/22 15:53:59;;;;;;;60.30;14.00;;;;;;;;;;5050026;28;20316;-65
2023/12/22 15:57:04;;;;;;;64.40;19.00;;;;;;;;;;5049729;28;20044;-65
2023/12/22 16:00:08;;;;;;;58.28;17.70;;;;;;;;;;5049877;28;20052;-65
2023/12/22 16:03:13;;;;;;;49.80;14.73;;;;;;;;;;5049670;28;20044;-65
2023/12/22 16:06:18;;;;;;;43.15;11.48;;;;;;;;;;5049621;28;20587;-64
2023/12/22 16:09:22;;;;;;;39.17;12.32;;;;;;;;;;5049835;28;20044;-65
2023/12/22 16:12:27;;;;;;;52.97;13.88;;;;;;;;;;5049703;28;20052;-67
2023/12/22 16:15:31;;;;;;;63.05;14.60;;;;;;;;;;5049750;28;20396;-66
2023/12/22 16:18:36;;;;;;;57.78;14.05;;;;;;;;;;5049717;28;20511;-67
2023/12/22 16:21:43;;;;;;;47.28;13.23;;;;;;;;;;5049427;28;20045;-67
2023/12/22 16:24:47;;;;;;;70.60;15.65;;;;;;;;;;5049146;28;20044;-67
2023/12/22 16:27:52;;;;;;;55.20;19.65;;;;;;;;;;5049047;28;20044;-67
2023/12/22 16:30:56;;;;;;;58.40;22.50;;;;;;;;;;5047384;28;20056;-66
2023/12/22 16:34:02;;;;;;;65.80;20.67;;;;;;;;;;5048103;28;20040;-65
2023/12/22 16:37:06;;;;;;;55.30;23.13;;;;;;;;;;5048457;28;20048;-67
2023/12/22 16:40:10;;;;;;;64.72;30.42;;;;;;;;;;5048600;28;20044;-66
2023/12/22 16:43:14;;;;;;;70.45;32.47;;;;;;;;;;5048839;28;20064;-67
2023/12/22 16:46:22;;;;;;;73.03;32.15;;;14.70;99.90;;;;;;5049243;28;20040;-66
2023/12/22 16:49:26;;;;;;;81.03;33.75;;;;;;;;;;5049063;28;20047;-66
2023/12/22 16:52:30;;;;;;;83.80;36.83;;;;;;;;;;5049228;28;20411;-66
2023/12/22 16:55:35;;;;;;;86.05;42.08;;;;;;;;;;5048385;28;20056;-66
2023/12/22 16:58:39;;;;;;;90.38;44.50;;;;;;;;;;5048972;28;20044;-67
2023/12/22 17:01:46;;;;;;;95.47;45.83;;;;;;;;;;5048584;28;20476;-66
2023/12/22 17:04:50;;;;;;;101.05;45.33;;;;;;;;;;5048813;28;20064;-65
2023/12/22 17:07:54;;;;;;;89.65;43.90;;;;;;;;;;5094971;27;20037;-65
2023/12/22 17:11:02;;;;;;;90.15;44.00;;;;;;;;;;5048736;28;20059;-65
2023/12/22 17:14:06;;;;;;;82.15;40.70;;;;;;;;;;5096555;27;20510;-65
2023/12/22 17:17:10;;;;;;;80.63;40.80;;;;;;;;;;5048493;28;20052;-66
2023/12/22 17:20:15;;;;;;;79.20;36.42;;;;;;;;;;5048430;28;20495;-66
2023/12/22 17:23:19;;;;;;;87.88;39.45;;;;;;;;;;5048826;28;20388;-63
2023/12/22 17:26:23;;;;;;;67.45;33.78;;;;;;;;;;5048693;28;20149;-66
2023/12/22 17:29:27;;;;;;;68.90;32.53;;;;;;;;;;5048567;28;20044;-64
2023/12/22 17:32:32;;;;;;;60.70;31.50;;;;;;;;;;5048207;28;20064;-64
2023/12/22 17:35:36;;;;;;;80.13;36.85;;;;;;;;;;5048244;28;20515;-64
2023/12/22 17:38:40;;;;;;;82.45;42.88;;;;;;;;;;5048336;28;20092;-64
2023/12/22 17:41:45;;;;;;;81.72;41.45;;;;;;;;;;5048347;28;20048;-63
2023/12/22 17:44:49;;;;;;;79.97;44.08;;;;;;;;;;5047871;28;20052;-64
2023/12/22 17:47:54;;;;;;;78.25;41.40;;;;;;;;;;5048226;28;20048;-63
2023/12/22 17:50:58;;;;;;;79.45;41.70;;;;;;;;;;5047984;28;20056;-64